createdAt,value
2022-12-11T00:00:05.826Z,14.00
2022-12-11T00:05:10.978Z,13.50
2022-12-11T00:10:16.031Z,15.70
2022-12-11T00:15:20.874Z,14.00
2022-12-11T00:20:25.199Z,14.80
2022-12-11T00:25:29.568Z,11.70
2022-12-11T00:30:34.212Z,13.80
2022-12-11T00:35:46.491Z,14.90
2022-12-11T00:40:51.236Z,15.90
2022-12-11T00:45:55.793Z,12.40
2022-12-11T00:50:59.932Z,14.20
2022-12-11T00:56:10.674Z,16.00
2022-12-11T01:01:21.929Z,15.80
2022-12-11T01:06:28.950Z,16.10
2022-12-11T01:11:33.100Z,16.60
2022-12-11T01:16:36.792Z,19.50
2022-12-11T01:21:42.827Z,19.50
2022-12-11T01:26:47.433Z,21.90
2022-12-11T01:31:52.375Z,19.10
2022-12-11T01:36:56.443Z,16.10
2022-12-11T01:42:02.255Z,21.60
2022-12-11T01:47:06.541Z,19.00
2022-12-11T01:52:19.878Z,17.30
2022-12-11T01:57:24.224Z,18.80
2022-12-11T02:02:31.043Z,23.40
2022-12-11T02:07:42.994Z,18.50
2022-12-11T02:13:10.856Z,16.80
2022-12-11T02:18:25.889Z,17.00
2022-12-11T02:23:49.074Z,16.50
2022-12-11T02:29:09.803Z,16.80
2022-12-11T02:34:26.169Z,18.10
2022-12-11T02:39:33.198Z,17.90
2022-12-11T02:44:41.101Z,16.50
2022-12-11T02:54:55.810Z,17.00
2022-12-11T02:59:59.874Z,14.40
2022-12-11T03:05:05.988Z,16.30
2022-12-11T03:10:15.779Z,15.90
2022-12-11T03:15:24.648Z,16.50
2022-12-11T03:20:48.914Z,14.00
2022-12-11T03:26:14.789Z,15.50
2022-12-11T03:31:40.994Z,14.20
2022-12-11T03:36:48.766Z,18.60
2022-12-11T03:41:56.416Z,15.20
2022-12-11T03:52:10.173Z,14.40
2022-12-11T03:57:19.131Z,15.50
2022-12-11T04:02:24.699Z,15.20
2022-12-11T04:07:30.067Z,16.30
2022-12-11T04:12:36.204Z,19.10
2022-12-11T04:17:59.446Z,17.00
2022-12-11T04:23:40.933Z,17.60
2022-12-11T04:28:46.057Z,19.70
2022-12-11T04:33:50.992Z,16.90
2022-12-11T04:38:56.155Z,17.40
2022-12-11T04:44:00.543Z,18.70
2022-12-11T04:49:05.501Z,16.20
2022-12-11T04:54:10.878Z,19.00
2022-12-11T04:59:16.210Z,23.40
2022-12-11T05:04:21.204Z,21.70
2022-12-11T05:09:27.066Z,21.00
2022-12-11T05:14:33.145Z,20.30
2022-12-11T05:19:37.925Z,21.10
2022-12-11T05:24:42.561Z,17.40
2022-12-11T05:29:47.595Z,17.70
2022-12-11T05:34:52.595Z,18.20
2022-12-11T05:39:58.323Z,17.50
2022-12-11T05:45:04.715Z,18.40
2022-12-11T05:50:09.859Z,18.90
2022-12-11T05:55:15.223Z,15.50
2022-12-11T06:00:20.285Z,14.90
2022-12-11T06:05:25.386Z,14.20
2022-12-11T06:10:29.428Z,18.90
2022-12-11T06:15:34.331Z,13.10
2022-12-11T06:20:39.790Z,16.70
2022-12-11T06:25:43.127Z,15.10
2022-12-11T06:30:47.211Z,16.10
2022-12-11T06:35:52.110Z,14.00
2022-12-11T06:40:59.016Z,13.80
2022-12-11T06:46:06.595Z,15.40
2022-12-11T06:51:13.777Z,13.70
2022-12-11T06:56:20.171Z,15.70
2022-12-11T07:01:27.666Z,14.30
2022-12-11T07:06:31.302Z,15.60
2022-12-11T07:11:34.583Z,14.60
2022-12-11T07:16:38.922Z,15.30
2022-12-11T07:21:43.885Z,15.00
2022-12-11T07:26:48.351Z,13.40
2022-12-11T07:31:54.739Z,14.50
2022-12-11T07:36:58.480Z,15.10
2022-12-11T07:42:02.507Z,17.60
2022-12-11T07:47:05.948Z,12.00
2022-12-11T07:52:11.765Z,15.40
2022-12-11T07:57:16.305Z,14.00
2022-12-11T08:02:21.143Z,17.70
2022-12-11T08:07:25.324Z,16.10
2022-12-11T08:12:29.024Z,14.30
2022-12-11T08:17:38.248Z,13.60
2022-12-11T08:22:43.405Z,12.90
2022-12-11T08:27:47.602Z,13.10
2022-12-11T08:32:52.787Z,13.30
2022-12-11T08:37:56.441Z,14.80
2022-12-11T08:43:00.189Z,11.70
2022-12-11T08:48:04.918Z,14.80
2022-12-11T08:53:09.928Z,11.90
2022-12-11T08:58:15.397Z,13.50
2022-12-11T09:03:20.809Z,11.40
2022-12-11T09:08:24.312Z,13.20
2022-12-11T09:13:28.396Z,13.80
2022-12-11T09:18:32.741Z,12.40
2022-12-11T09:23:37.247Z,13.40
2022-12-11T09:28:46.309Z,13.00
2022-12-11T09:33:52.639Z,13.60
2022-12-11T09:38:56.627Z,13.50
2022-12-11T09:44:21.712Z,14.40
2022-12-11T09:49:27.935Z,12.60
2022-12-11T09:54:32.733Z,12.30
2022-12-11T10:00:04.739Z,13.30
2022-12-11T10:05:30.287Z,11.30
2022-12-11T10:10:58.050Z,11.60
2022-12-11T10:16:35.965Z,10.80
2022-12-11T10:21:42.101Z,11.30
2022-12-11T10:26:47.696Z,14.40
2022-12-11T10:32:00.185Z,12.40
2022-12-11T10:37:04.972Z,11.30
2022-12-11T10:42:20.929Z,11.70
2022-12-11T10:47:25.270Z,11.20
2022-12-11T10:52:39.166Z,11.60
2022-12-11T10:57:45.648Z,12.10
2022-12-11T11:02:50.486Z,10.40
2022-12-11T11:08:17.787Z,11.30
2022-12-11T11:13:28.345Z,7.10
2022-12-11T11:18:34.059Z,11.30
2022-12-11T11:23:45.470Z,12.00
2022-12-11T11:28:54.335Z,12.70
2022-12-11T11:34:00.952Z,13.90
2022-12-11T11:39:38.111Z,11.40
2022-12-11T11:44:48.298Z,12.00
2022-12-11T11:50:03.605Z,10.90
2022-12-11T11:55:21.750Z,11.30
2022-12-11T12:00:33.395Z,12.20
2022-12-11T12:06:03.080Z,13.00
2022-12-11T12:11:34.369Z,15.30
2022-12-11T12:16:53.902Z,18.30
2022-12-11T12:22:10.031Z,14.20
2022-12-11T12:27:55.617Z,16.40
2022-12-11T12:33:13.800Z,13.40
2022-12-11T12:38:23.605Z,12.40
2022-12-11T12:43:46.952Z,13.10
2022-12-11T12:48:55.646Z,12.50
2022-12-11T12:54:09.098Z,13.30
2022-12-11T12:59:24.936Z,17.60
2022-12-11T13:04:58.578Z,15.10
2022-12-11T13:10:25.973Z,16.60
2022-12-11T13:15:45.454Z,14.50
2022-12-11T13:20:52.685Z,17.20
2022-12-11T13:26:02.712Z,14.80
2022-12-11T13:31:15.932Z,14.60
2022-12-11T13:36:40.287Z,13.90
2022-12-11T13:41:52.230Z,16.30
2022-12-11T13:46:59.703Z,19.50
2022-12-11T13:52:05.728Z,14.80
2022-12-11T13:57:09.777Z,14.00
2022-12-11T14:02:24.013Z,12.00
2022-12-11T14:07:33.808Z,14.40
2022-12-11T14:12:37.920Z,14.20
2022-12-11T14:17:50.046Z,14.10
2022-12-11T14:23:34.430Z,16.00
2022-12-11T14:28:42.970Z,13.70
2022-12-11T14:33:54.137Z,15.80
2022-12-11T14:39:05.354Z,14.10
2022-12-11T14:44:16.387Z,15.70
2022-12-11T14:49:35.124Z,14.70
2022-12-11T14:54:43.621Z,14.20
2022-12-11T14:59:50.305Z,13.40
2022-12-11T15:05:18.709Z,14.80
2022-12-11T15:15:47.212Z,11.80
2022-12-11T15:20:56.724Z,15.70
2022-12-11T15:26:02.546Z,14.40
2022-12-11T15:31:22.596Z,17.00
2022-12-11T15:36:36.900Z,13.60
2022-12-11T15:41:42.657Z,9.20
2022-12-11T15:46:46.810Z,11.10
2022-12-11T15:51:51.104Z,11.50
2022-12-11T15:56:55.881Z,13.00
2022-12-11T16:02:00.499Z,12.40
2022-12-11T16:07:16.005Z,10.80
2022-12-11T16:12:20.425Z,13.30
2022-12-11T16:17:25.407Z,10.90
2022-12-11T16:22:30.251Z,14.80
2022-12-11T16:27:34.089Z,14.00
2022-12-11T16:32:40.967Z,14.30
2022-12-11T16:37:48.822Z,18.40
2022-12-11T16:42:55.495Z,19.90
2022-12-11T16:48:05.452Z,18.80
2022-12-11T16:53:09.539Z,14.50
2022-12-11T16:58:20.470Z,12.80
2022-12-11T17:03:24.598Z,12.80
2022-12-11T17:08:28.440Z,13.90
2022-12-11T17:13:35.968Z,16.40
2022-12-11T17:18:41.409Z,15.30
2022-12-11T17:23:45.586Z,15.50
2022-12-11T17:28:49.128Z,20.40
2022-12-11T17:33:54.796Z,14.00
2022-12-11T17:38:58.904Z,21.10
2022-12-11T17:44:02.642Z,20.80
2022-12-11T17:49:06.354Z,21.00
2022-12-11T17:54:11.889Z,20.10
2022-12-11T17:59:16.530Z,22.00
2022-12-11T18:04:21.054Z,17.10
2022-12-11T18:09:25.066Z,20.90
2022-12-11T18:14:29.994Z,24.40
2022-12-11T18:19:34.466Z,24.00
2022-12-11T18:24:38.925Z,20.50
2022-12-11T18:29:43.635Z,21.80
2022-12-11T18:34:49.852Z,20.90
2022-12-11T18:39:54.958Z,24.90
2022-12-11T18:44:59.446Z,22.10
2022-12-11T18:50:07.719Z,21.00
2022-12-11T18:55:12.490Z,24.80
2022-12-11T19:00:17.613Z,24.30
2022-12-11T19:05:21.649Z,25.00
2022-12-11T19:10:26.065Z,22.10
2022-12-11T19:15:30.819Z,16.00
2022-12-11T19:20:49.486Z,24.30
2022-12-11T19:25:55.417Z,25.60
2022-12-11T19:31:00.050Z,27.30
2022-12-11T19:36:06.763Z,23.70
2022-12-11T19:41:27.224Z,23.20
2022-12-11T19:46:31.913Z,22.20
2022-12-11T19:51:41.923Z,24.30
2022-12-11T19:56:46.926Z,21.00
2022-12-11T20:01:51.573Z,22.80
2022-12-11T20:06:55.339Z,25.50
2022-12-11T20:12:00.359Z,24.20
2022-12-11T20:17:12.445Z,21.90
2022-12-11T20:22:18.133Z,19.70
2022-12-11T20:27:21.946Z,23.00
2022-12-11T20:32:26.344Z,21.80
2022-12-11T20:37:30.746Z,17.80
2022-12-11T20:42:35.563Z,22.10
2022-12-11T20:47:39.130Z,18.80
2022-12-11T20:52:43.595Z,21.50
2022-12-11T20:57:47.990Z,17.80
2022-12-11T21:02:52.548Z,19.30
2022-12-11T21:07:58.125Z,19.90
2022-12-11T21:13:03.524Z,22.70
2022-12-11T21:18:08.450Z,21.90
2022-12-11T21:23:12.299Z,18.80
2022-12-11T21:28:17.009Z,21.00
2022-12-11T21:33:21.554Z,18.20
2022-12-11T21:38:26.909Z,19.40
2022-12-11T21:43:31.232Z,16.00
2022-12-11T21:48:35.364Z,21.20
2022-12-11T21:53:39.557Z,18.80
2022-12-11T21:58:44.407Z,17.70
2022-12-11T22:03:50.302Z,19.30
2022-12-11T22:08:54.948Z,20.00
2022-12-11T22:14:01.160Z,20.00
2022-12-11T22:19:06.502Z,15.20
2022-12-11T22:24:11.145Z,17.80
2022-12-11T22:29:16.460Z,22.30
2022-12-11T22:34:22.585Z,19.20
2022-12-11T22:39:28.582Z,17.70
2022-12-11T22:44:33.606Z,17.40
2022-12-11T22:49:38.315Z,17.60
2022-12-11T22:54:44.530Z,16.10
2022-12-11T22:59:50.213Z,18.50
2022-12-11T23:04:55.470Z,16.50
2022-12-11T23:10:00.100Z,7.80
2022-12-11T23:15:05.503Z,16.90
2022-12-11T23:20:09.707Z,15.20
2022-12-11T23:25:15.165Z,14.20
2022-12-11T23:30:20.216Z,17.00
2022-12-11T23:35:25.614Z,13.50
2022-12-11T23:40:30.542Z,14.10
2022-12-11T23:45:35.120Z,13.00
2022-12-11T23:50:41.342Z,14.60
2022-12-11T23:55:45.690Z,12.70
